Time;durP1;ratioP1;P1;durP2;ratioP2;P2;SDS_P1;SDS_P2;PMS_P1;PMS_P2;Temp;Humidity;BMP_temperature;BMP_pressure;BME280_temperature;BME280_humidity;BME280_pressure;Samples;Min_cycle;Max_cycle;Signal;HPM_P1;HPM_P2
2021/01/26 00:02:10;;;;;;;6.53;5.60;;;0.40;95.70;;;;;;5014475;28;20230;-84
2021/01/26 00:04:37;;;;;;;6.97;6.10;;;0.40;96.00;;;;;;5016383;28;20199;-80
2021/01/26 00:07:03;;;;;;;6.50;5.80;;;0.40;96.30;;;;;;5010852;28;20248;-83
2021/01/26 00:09:31;;;;;;;7.17;6.27;;;0.40;96.20;;;;;;5018282;28;20226;-84
2021/01/26 00:11:57;;;;;;;6.80;5.97;;;0.40;96.30;;;;;;5015696;28;20231;-81
2021/01/26 00:14:23;;;;;;;7.57;6.17;;;0.30;96.30;;;;;;5023922;28;20234;-80
2021/01/26 00:16:51;;;;;;;8.27;5.90;;;0.30;96.70;;;;;;5017482;28;20347;-80
2021/01/26 00:19:17;;;;;;;6.63;5.97;;;0.30;96.70;;;;;;5019431;28;20199;-83
2021/01/26 00:21:44;;;;;;;7.40;5.60;;;0.30;96.70;;;;;;5013840;28;20231;-80
2021/01/26 00:24:10;;;;;;;8.37;6.30;;;0.50;96.80;;;;;;5013963;28;20196;-82
2021/01/26 00:26:37;;;;;;;6.63;5.93;;;0.40;96.60;;;;;;5018781;28;20469;-80
2021/01/26 00:29:06;;;;;;;7.07;6.20;;;0.40;96.70;;;;;;5015161;28;20204;-83
2021/01/26 00:31:33;;;;;;;7.40;6.60;;;0.40;96.70;;;;;;5019743;28;20296;-83
2021/01/26 00:34:00;;;;;;;7.67;6.77;;;0.40;97.10;;;;;;5026656;28;20299;-84
2021/01/26 00:36:27;;;;;;;6.97;6.27;;;0.50;97.20;;;;;;5025238;28;20231;-84
2021/01/26 00:38:53;;;;;;;7.00;6.30;;;0.40;96.80;;;;;;5022189;28;20564;-81
2021/01/26 00:41:19;;;;;;;7.30;6.17;;;0.40;97.10;;;;;;5021174;28;20229;-80
2021/01/26 00:43:46;;;;;;;7.23;6.07;;;0.30;97.30;;;;;;5024535;28;20203;-83
2021/01/26 00:46:12;;;;;;;7.40;5.40;;;0.40;97.50;;;;;;5017478;28;20230;-81
2021/01/26 00:48:38;;;;;;;6.50;5.80;;;0.50;97.20;;;;;;5019658;28;20281;-81
2021/01/26 00:51:05;;;;;;;7.17;6.17;;;0.50;97.00;;;;;;5018774;28;20226;-80
2021/01/26 00:53:32;;;;;;;6.43;5.30;;;0.50;97.10;;;;;;5021468;28;20210;-85
2021/01/26 00:55:58;;;;;;;7.00;5.70;;;0.60;97.00;;;;;;5017711;28;20310;-81
2021/01/26 00:58:24;;;;;;;6.40;5.53;;;0.60;96.90;;;;;;5022592;28;20299;-81
2021/01/26 01:00:51;;;;;;;6.83;6.10;;;0.60;96.80;;;;;;5018306;28;20688;-88
2021/01/26 01:03:17;;;;;;;7.80;6.23;;;0.50;97.20;;;;;;5023127;28;20202;-80
2021/01/26 01:05:43;;;;;;;6.47;5.63;;;0.50;97.00;;;;;;5014387;28;20233;-85
2021/01/26 01:08:10;;;;;;;6.50;5.80;;;0.50;96.90;;;;;;5020016;28;20207;-80
2021/01/26 01:10:38;;;;;;;6.83;5.87;;;0.50;97.10;;;;;;5018930;28;20209;-81
2021/01/26 01:13:05;;;;;;;6.83;6.13;;;0.50;97.00;;;;;;5017879;28;20792;-82
2021/01/26 01:15:31;;;;;;;6.77;5.63;;;0.60;97.00;;;;;;5016700;28;20547;-81
2021/01/26 01:17:57;;;;;;;6.50;5.80;;;0.50;97.10;;;;;;5016817;28;20431;-89
2021/01/26 01:20:26;;;;;;;6.30;5.70;;;0.40;97.00;;;;;;5014455;28;20205;-80
2021/01/26 01:22:53;;;;;;;6.50;5.57;;;0.40;97.10;;;;;;5020249;28;20245;-85
2021/01/26 01:25:20;;;;;;;7.70;5.80;;;0.50;97.20;;;;;;5020589;28;20222;-80
2021/01/26 01:27:46;;;;;;;6.17;5.50;;;0.40;96.90;;;;;;5014605;28;20227;-81
2021/01/26 01:30:15;;;;;;;7.50;5.97;;;0.40;97.00;;;;;;5020155;28;20209;-85
2021/01/26 01:32:42;;;;;;;6.47;5.53;;;0.40;97.00;;;;;;5022091;28;20227;-85
2021/01/26 01:35:09;;;;;;;7.53;6.33;;;0.40;96.80;;;;;;5016602;28;20214;-84
2021/01/26 01:37:36;;;;;;;6.53;5.87;;;0.30;96.80;;;;;;5021778;28;20228;-81
2021/01/26 01:40:02;;;;;;;8.30;6.97;;;0.30;96.90;;;;;;5020988;28;20218;-80
2021/01/26 01:42:29;;;;;;;7.23;6.07;;;0.30;97.10;;;;;;5014552;28;20235;-80
2021/01/26 01:44:56;;;;;;;7.40;6.57;;;0.20;97.10;;;;;;5016200;28;20613;-83
2021/01/26 01:47:25;;;;;;;6.53;5.77;;;0.20;97.20;;;;;;5022667;28;20222;-80
2021/01/26 01:49:52;;;;;;;6.67;5.97;;;0.30;97.20;;;;;;5012824;28;20206;-84
2021/01/26 01:52:23;;;;;;;9.57;6.63;;;0.30;97.00;;;;;;5019977;28;20226;-80
2021/01/26 01:54:56;;;;;;;7.33;5.90;;;0.40;97.00;;;;;;5015467;28;20230;-82
2021/01/26 01:57:28;;;;;;;7.47;6.47;;;0.40;96.60;;;;;;5019551;28;20645;-84
2021/01/26 01:59:58;;;;;;;7.60;6.40;;;0.30;96.60;;;;;;5019170;28;20231;-84
2021/01/26 02:02:27;;;;;;;7.27;6.07;;;0.30;96.40;;;;;;5018777;28;20288;-80
2021/01/26 02:04:54;;;;;;;7.00;6.20;;;0.20;96.50;;;;;;5012647;28;20214;-80
2021/01/26 02:07:20;;;;;;;7.50;6.40;;;0.20;96.70;;;;;;5017878;28;20240;-84
2021/01/26 02:09:47;;;;;;;7.00;6.30;;;0.20;96.90;;;;;;5018253;28;20285;-82
2021/01/26 02:12:13;;;;;;;8.33;6.53;;;0.30;96.90;;;;;;5017657;28;20223;-81
2021/01/26 02:14:48;;;;;;;6.97;6.27;;;0.30;96.70;;;;;;5035149;28;20257;-85
2021/01/26 02:17:27;;;;;;;7.97;6.33;;;0.30;96.30;;;;;;5029311;28;20225;-82
2021/01/26 02:20:35;;;;;;;6.63;5.97;;;0.30;96.60;;;;;;5018903;28;20289;-80
2021/01/26 02:23:28;;;;;;;8.17;6.60;;;0.30;96.40;;;;;;5013129;28;20223;-80
2021/01/26 02:26:48;;;;;;;8.33;7.20;;;0.30;96.40;;;;;;5014658;28;20717;-81
2021/01/26 02:29:23;;;;;;;9.07;6.97;;;0.40;96.40;;;;;;4967047;28;20257;-88
2021/01/26 02:32:13;;;;;;;8.30;6.87;;;0.40;96.20;;;;;;5019242;28;20241;-83
2021/01/26 02:35:38;;;;;;;7.70;6.70;;;0.30;96.20;;;;;;5010353;28;20561;-82
2021/01/26 02:38:37;;;;;;;8.40;6.70;;;0.30;95.90;;;;;;4997314;28;20226;-86
2021/01/26 02:41:08;;;;;;;9.43;7.30;;;0.30;95.90;;;;;;5023534;28;20332;-85
2021/01/26 02:43:43;;;;;;;10.50;7.60;;;0.20;96.20;;;;;;5019376;28;20208;-83
2021/01/26 02:46:17;;;;;;;8.67;7.10;;;0.40;96.10;;;;;;5016731;28;20230;-84
2021/01/26 02:49:03;;;;;;;7.97;6.90;;;0.30;96.10;;;;;;5015626;28;20204;-86
2021/01/26 02:51:48;;;;;;;7.67;6.73;;;0.30;96.20;;;;;;5016838;28;20857;-80
2021/01/26 02:54:20;;;;;;;8.20;6.83;;;0.30;95.80;;;;;;5015955;28;20203;-83
2021/01/26 02:56:55;;;;;;;10.03;7.37;;;0.20;95.80;;;;;;5015493;28;20499;-82
2021/01/26 02:59:28;;;;;;;8.53;6.87;;;0.20;95.70;;;;;;5019030;28;20221;-88
2021/01/26 03:01:59;;;;;;;8.07;6.73;;;0.10;96.10;;;;;;5018550;28;20237;-83
2021/01/26 03:04:32;;;;;;;7.90;6.33;;;0.10;95.90;;;;;;5020846;28;20478;-82
2021/01/26 03:07:01;;;;;;;8.40;6.97;;;0.10;96.00;;;;;;5014465;28;20304;-83
2021/01/26 03:09:31;;;;;;;7.90;7.10;;;0.10;95.80;;;;;;5019914;28;20279;-81
2021/01/26 03:12:05;;;;;;;7.37;6.50;;;0.10;95.70;;;;;;5014010;28;20233;-82
2021/01/26 03:14:39;;;;;;;8.03;6.50;;;0.10;95.80;;;;;;5015372;28;20206;-80
2021/01/26 03:17:11;;;;;;;7.53;6.67;;;0.10;95.80;;;;;;5017891;28;20708;-82
2021/01/26 03:19:40;;;;;;;8.90;6.67;;;0.10;95.50;;;;;;5014649;28;20219;-80
2021/01/26 03:22:09;;;;;;;9.20;6.83;;;0.20;95.70;;;;;;5015089;28;20601;-80
2021/01/26 03:24:38;;;;;;;8.00;6.80;;;0.20;95.40;;;;;;5014053;28;20199;-84
2021/01/26 03:27:09;;;;;;;8.07;6.23;;;0.20;94.90;;;;;;5017087;28;20227;-80
2021/01/26 03:29:38;;;;;;;8.20;6.73;;;0.10;94.10;;;;;;5017815;28;20375;-82
2021/01/26 03:32:10;;;;;;;7.13;6.03;;;0.10;94.00;;;;;;5022828;28;20229;-79
2021/01/26 03:34:36;;;;;;;8.50;6.77;;;0.10;94.00;;;;;;5012293;28;20203;-84
2021/01/26 03:37:03;;;;;;;8.80;7.20;;;0.20;94.20;;;;;;5013721;28;20379;-86
2021/01/26 03:39:30;;;;;;;9.90;7.60;;;0.10;94.30;;;;;;5022863;28;20206;-83
2021/01/26 03:41:56;;;;;;;8.63;6.97;;;0.10;94.70;;;;;;5024110;28;20704;-80
2021/01/26 03:44:23;;;;;;;8.63;7.13;;;0.10;94.70;;;;;;5017588;28;20291;-79
2021/01/26 03:47:10;;;;;;;8.97;7.50;;;0.10;94.80;;;;;;5013311;28;20232;-81
2021/01/26 03:49:57;;;;;;;10.00;8.13;;;0.00;94.90;;;;;;5017373;28;20204;-80
2021/01/26 03:52:38;;;;;;;9.83;8.03;;;-0.10;95.30;;;;;;5015763;28;20229;-82
2021/01/26 03:55:12;;;;;;;8.80;7.67;;;0.00;95.50;;;;;;5019297;28;20203;-86
2021/01/26 03:57:56;;;;;;;10.87;8.50;;;-0.10;95.40;;;;;;5017791;28;20728;-80
2021/01/26 04:00:33;;;;;;;10.87;8.53;;;0.00;95.30;;;;;;5022838;28;20257;-86
2021/01/26 04:03:21;;;;;;;11.33;8.63;;;-0.10;95.60;;;;;;5015843;28;20230;-82
2021/01/26 04:05:53;;;;;;;10.47;8.40;;;-0.10;95.50;;;;;;5022226;28;20230;-82
2021/01/26 04:08:25;;;;;;;10.67;8.70;;;-0.10;95.70;;;;;;5020454;28;20207;-82
2021/01/26 04:10:58;;;;;;;11.10;9.07;;;-0.10;95.50;;;;;;5024406;28;20199;-81
2021/01/26 04:13:29;;;;;;;11.50;9.27;;;0.00;95.50;;;;;;5016672;28;20668;-79
2021/01/26 04:16:00;;;;;;;10.60;8.47;;;0.00;95.50;;;;;;5022767;28;20211;-84
2021/01/26 04:18:30;;;;;;;11.43;8.80;;;0.10;95.40;;;;;;5023819;28;20210;-80
2021/01/26 04:20:58;;;;;;;12.27;9.30;;;0.10;95.10;;;;;;5027150;28;20534;-85
2021/01/26 04:23:26;;;;;;;13.40;9.50;;;0.00;95.10;;;;;;5015616;28;20541;-80
2021/01/26 04:25:52;;;;;;;12.17;9.10;;;-0.10;95.30;;;;;;5016544;28;20214;-82
2021/01/26 04:28:32;;;;;;;12.80;9.70;;;-0.10;95.50;;;;;;5019948;28;20201;-80
2021/01/26 04:30:59;;;;;;;9.60;8.33;;;-0.10;95.40;;;;;;5016558;28;20195;-80
2021/01/26 04:33:25;;;;;;;11.87;9.13;;;-0.10;95.10;;;;;;5018601;28;20199;-82
2021/01/26 04:35:51;;;;;;;12.33;8.30;;;-0.10;94.70;;;;;;5018397;28;20199;-79
2021/01/26 04:38:18;;;;;;;10.80;8.27;;;-0.30;94.80;;;;;;5038242;28;20202;-85
2021/01/26 04:40:45;;;;;;;10.17;8.17;;;-0.30;94.70;;;;;;5024821;28;20714;-86
2021/01/26 04:43:18;;;;;;;9.10;7.63;;;-0.30;94.60;;;;;;5011423;28;20199;-80
2021/01/26 04:45:54;;;;;;;9.83;7.33;;;-0.30;94.60;;;;;;5019099;28;20617;-80
2021/01/26 04:48:28;;;;;;;8.63;7.10;;;-0.30;94.60;;;;;;5017524;28;20206;-85
2021/01/26 04:50:58;;;;;;;8.43;7.10;;;-0.30;94.50;;;;;;5010503;28;20214;-84
2021/01/26 04:53:46;;;;;;;9.77;8.00;;;-0.40;94.50;;;;;;5022752;28;20206;-80
2021/01/26 04:56:21;;;;;;;9.43;7.20;;;-0.40;94.40;;;;;;5017301;28;20237;-85
2021/01/26 04:59:09;;;;;;;11.67;7.53;;;-0.40;94.40;;;;;;5021857;28;20252;-82
2021/01/26 05:01:57;;;;;;;8.63;7.10;;;-0.40;94.10;;;;;;5000076;28;20219;-80
2021/01/26 05:04:29;;;;;;;10.93;7.50;;;-0.50;94.20;;;;;;5017417;28;20202;-85
2021/01/26 05:06:58;;;;;;;9.30;7.00;;;-0.50;94.10;;;;;;5018570;28;20223;-80
2021/01/26 05:09:29;;;;;;;9.17;7.23;;;-0.50;94.30;;;;;;5015033;28;20463;-80
2021/01/26 05:12:00;;;;;;;9.57;7.67;;;-0.50;94.20;;;;;;5019892;28;20222;-81
2021/01/26 05:14:31;;;;;;;9.13;6.83;;;-0.50;94.10;;;;;;5015229;28;20211;-79
2021/01/26 05:17:01;;;;;;;8.33;6.70;;;-0.40;94.10;;;;;;5009644;28;20223;-80
2021/01/26 05:19:35;;;;;;;9.13;6.87;;;-0.30;94.00;;;;;;5013409;28;20203;-82
2021/01/26 05:22:08;;;;;;;9.10;6.97;;;-0.40;93.90;;;;;;5024545;28;20244;-84
2021/01/26 05:24:38;;;;;;;8.67;6.40;;;-0.40;93.90;;;;;;5017246;28;20203;-84
2021/01/26 05:27:06;;;;;;;8.57;6.50;;;-0.40;93.90;;;;;;5019358;28;20219;-82
2021/01/26 05:29:32;;;;;;;8.90;6.53;;;-0.50;93.90;;;;;;5017744;28;20203;-86
2021/01/26 05:32:01;;;;;;;9.70;6.43;;;-0.40;93.90;;;;;;5023056;28;20232;-82
2021/01/26 05:34:30;;;;;;;10.53;7.00;;;-0.40;93.90;;;;;;5015789;28;20230;-81
2021/01/26 05:36:57;;;;;;;10.60;6.93;;;-0.40;93.90;;;;;;5017634;28;20246;-86
2021/01/26 05:39:31;;;;;;;9.47;7.07;;;-0.40;93.90;;;;;;5019464;28;20203;-81
2021/01/26 05:41:58;;;;;;;10.60;7.17;;;-0.50;93.90;;;;;;5024365;28;20737;-84
2021/01/26 05:44:25;;;;;;;9.77;7.07;;;-0.40;93.90;;;;;;5025155;28;20238;-85
2021/01/26 05:46:51;;;;;;;9.87;6.90;;;-0.40;93.90;;;;;;5018581;28;20219;-83
2021/01/26 05:49:34;;;;;;;9.63;7.43;;;-0.50;93.90;;;;;;5013735;28;20244;-81
2021/01/26 05:52:01;;;;;;;7.90;6.47;;;-0.50;93.90;;;;;;5019478;28;20240;-85
2021/01/26 05:54:29;;;;;;;11.67;7.47;;;-0.50;93.90;;;;;;5023307;28;20199;-81
2021/01/26 05:56:57;;;;;;;9.57;7.00;;;-0.50;93.90;;;;;;5015545;28;20230;-85
2021/01/26 05:59:30;;;;;;;9.03;7.20;;;-0.50;93.60;;;;;;5014379;28;20724;-85
2021/01/26 06:02:10;;;;;;;10.50;6.70;;;-0.50;93.80;;;;;;5023030;28;20222;-81
2021/01/26 06:04:38;;;;;;;9.97;6.57;;;-0.50;93.50;;;;;;5027450;28;20213;-82
2021/01/26 06:07:05;;;;;;;9.53;6.53;;;-0.50;93.90;;;;;;5023112;28;20234;-81
2021/01/26 06:09:35;;;;;;;8.67;7.23;;;-0.50;93.40;;;;;;5021570;28;20221;-84
2021/01/26 06:12:12;;;;;;;9.60;6.87;;;-0.60;93.20;;;;;;5030153;28;20231;-83
2021/01/26 06:14:40;;;;;;;8.50;6.27;;;-0.60;93.30;;;;;;5026842;28;20278;-81
2021/01/26 06:17:09;;;;;;;8.10;6.47;;;-0.60;93.20;;;;;;5018301;28;20219;-85
2021/01/26 06:19:36;;;;;;;10.30;6.50;;;-0.50;92.70;;;;;;5016808;28;20198;-85
2021/01/26 06:22:03;;;;;;;7.93;6.10;;;-0.50;92.90;;;;;;5021957;28;20310;-87
2021/01/26 06:24:34;;;;;;;9.20;6.40;;;-0.50;93.10;;;;;;5019686;28;20206;-81
2021/01/26 06:27:45;;;;;;;8.03;6.00;;;-0.60;92.70;;;;;;5021628;28;20219;-84
2021/01/26 06:30:29;;;;;;;8.33;6.07;;;-0.60;92.90;;;;;;5028717;28;20301;-81
2021/01/26 06:33:09;;;;;;;8.13;6.13;;;-0.50;92.40;;;;;;5030684;28;20630;-81
2021/01/26 06:35:41;;;;;;;9.67;6.40;;;-0.60;92.60;;;;;;5024271;28;20221;-81
2021/01/26 06:38:35;;;;;;;7.80;6.37;;;-0.60;92.60;;;;;;5017974;28;20285;-87
2021/01/26 06:41:36;;;;;;;8.67;6.00;;;-0.60;93.00;;;;;;5021995;28;20235;-83
2021/01/26 06:44:37;;;;;;;8.77;5.93;;;-0.60;92.50;;;;;;5011112;28;20281;-81
2021/01/26 06:47:22;;;;;;;7.73;5.60;;;-0.50;92.30;;;;;;5002543;28;20219;-82
2021/01/26 06:50:02;;;;;;;7.23;5.73;;;-0.40;91.80;;;;;;5028157;28;20194;-84
2021/01/26 06:52:58;;;;;;;7.57;6.00;;;-0.40;91.60;;;;;;5026012;28;20693;-84
2021/01/26 06:55:43;;;;;;;7.33;5.63;;;-0.30;91.70;;;;;;5033092;28;20199;-86
2021/01/26 06:58:34;;;;;;;7.63;6.03;;;-0.40;91.40;;;;;;5031807;28;20216;-88
2021/01/26 07:01:28;;;;;;;8.33;5.70;;;-0.40;91.20;;;;;;5024981;28;21128;-79
2021/01/26 07:04:15;;;;;;;6.17;4.73;;;-0.40;91.20;;;;;;4998796;28;20222;-80
2021/01/26 07:07:04;;;;;;;6.50;4.90;;;-0.40;91.00;;;;;;5007778;28;20238;-80
2021/01/26 07:09:53;;;;;;;6.67;4.93;;;-0.40;90.90;;;;;;5020192;28;20665;-80
2021/01/26 07:13:00;;;;;;;7.00;4.67;;;-0.40;90.80;;;;;;5029572;28;20314;-79
2021/01/26 07:15:42;;;;;;;6.53;5.10;;;-0.30;90.80;;;;;;5021428;28;20187;-83
2021/01/26 07:18:36;;;;;;;6.90;5.07;;;-0.30;90.70;;;;;;5023425;28;20296;-81
2021/01/26 07:21:10;;;;;;;6.87;5.00;;;-0.40;90.80;;;;;;5023918;28;20726;-89
2021/01/26 07:23:59;;;;;;;6.30;4.77;;;-0.50;90.70;;;;;;5024878;28;20282;-83
2021/01/26 07:27:06;;;;;;;5.97;4.57;;;-0.40;90.90;;;;;;5029325;28;20263;-83
2021/01/26 07:32:51;;;;;;;6.43;4.00;;;-0.40;91.40;;;;;;5023639;28;20241;-86
2021/01/26 07:35:38;;;;;;;7.13;4.70;;;-0.40;91.90;;;;;;5022810;28;20285;-84
2021/01/26 07:38:19;;;;;;;6.67;4.00;;;-0.40;92.20;;;;;;5021090;28;20237;-84
2021/01/26 07:41:00;;;;;;;6.67;5.07;;;-0.50;92.30;;;;;;5019957;28;20529;-83
2021/01/26 07:43:35;;;;;;;5.70;4.20;;;-0.60;92.70;;;;;;5027192;28;20257;-83
2021/01/26 07:46:25;;;;;;;6.30;4.17;;;-0.60;92.50;;;;;;5032470;28;20241;-83
2021/01/26 07:49:00;;;;;;;6.13;4.13;;;-0.60;92.70;;;;;;5030148;28;20197;-84
2021/01/26 07:51:45;;;;;;;6.43;4.37;;;-0.50;92.70;;;;;;5029114;28;20617;-81
2021/01/26 07:54:22;;;;;;;7.57;4.03;;;-0.50;92.90;;;;;;5027244;28;20191;-81
2021/01/26 07:56:57;;;;;;;5.60;4.40;;;-0.60;93.10;;;;;;5026997;28;20283;-80
2021/01/26 07:59:31;;;;;;;5.17;4.07;;;-0.50;93.10;;;;;;5019280;28;20223;-81
2021/01/26 08:02:00;;;;;;;6.13;4.30;;;-0.50;93.30;;;;;;5023790;28;20236;-81
2021/01/26 08:04:28;;;;;;;9.50;4.60;;;-0.60;93.90;;;;;;5025694;28;20818;-82
2021/01/26 08:07:05;;;;;;;10.30;5.33;;;-0.70;94.20;;;;;;5027929;28;20368;-83
2021/01/26 08:09:37;;;;;;;6.13;4.70;;;-0.80;96.30;;;;;;5038948;28;20248;-83
2021/01/26 08:12:20;;;;;;;7.57;5.33;;;-0.90;96.70;;;;;;5025484;28;20308;-83
2021/01/26 08:14:49;;;;;;;7.77;5.30;;;-1.00;97.70;;;;;;5024763;28;20195;-80
2021/01/26 08:17:27;;;;;;;6.77;4.63;;;-0.90;98.20;;;;;;5026185;28;20232;-81
2021/01/26 08:20:04;;;;;;;9.90;5.03;;;-0.90;98.40;;;;;;5027564;28;20245;-82
2021/01/26 08:22:45;;;;;;;6.93;5.03;;;-0.80;98.20;;;;;;5023472;28;20229;-80
2021/01/26 08:25:24;;;;;;;7.23;5.20;;;-0.80;98.30;;;;;;5029826;28;20194;-79
2021/01/26 08:27:54;;;;;;;8.10;5.40;;;-0.80;98.10;;;;;;5023877;28;20231;-79
2021/01/26 08:30:38;;;;;;;6.43;4.87;;;-0.70;97.90;;;;;;5024892;28;20605;-79
2021/01/26 08:33:09;;;;;;;7.30;4.60;;;-0.60;97.50;;;;;;5021349;28;20580;-79
2021/01/26 08:35:42;;;;;;;6.47;4.57;;;-0.60;96.90;;;;;;5023803;28;20563;-79
2021/01/26 08:38:50;;;;;;;8.43;4.73;;;-0.60;96.50;;;;;;5026269;28;20240;-79
2021/01/26 08:41:38;;;;;;;6.73;4.23;;;-0.50;96.50;;;;;;5022412;28;20304;-82
2021/01/26 08:44:55;;;;;;;8.10;4.63;;;-0.50;95.90;;;;;;5023020;28;20297;-80
2021/01/26 08:47:42;;;;;;;5.87;4.60;;;-0.40;95.80;;;;;;5025426;28;20641;-79
2021/01/26 08:50:15;;;;;;;6.80;4.60;;;-0.40;95.70;;;;;;5021230;28;20195;-80
2021/01/26 08:53:21;;;;;;;8.07;4.70;;;-0.40;95.30;;;;;;5024461;28;22191;-82
2021/01/26 08:55:51;;;;;;;6.27;4.50;;;-0.30;94.90;;;;;;5023833;28;20230;-81
2021/01/26 08:58:37;;;;;;;6.57;4.17;;;-0.30;94.60;;;;;;5027115;28;20196;-81
2021/01/26 09:01:47;;;;;;;5.20;3.60;;;-0.30;94.70;;;;;;5024585;28;20238;-82
2021/01/26 09:04:46;;;;;;;5.23;4.33;;;-0.30;94.50;;;;;;5034857;28;20282;-81
2021/01/26 09:07:46;;;;;;;7.00;4.30;;;-0.30;94.50;;;;;;5025676;28;20222;-78
2021/01/26 09:10:25;;;;;;;5.87;4.13;;;-0.30;94.30;;;;;;4961750;28;20256;-77
2021/01/26 09:13:13;;;;;;;5.53;4.10;;;-0.20;94.00;;;;;;5020725;28;20229;-78
2021/01/26 09:15:52;;;;;;;5.23;3.93;;;-0.10;94.00;;;;;;5031179;28;20213;-85
2021/01/26 09:18:23;;;;;;;8.70;4.30;;;-0.10;94.00;;;;;;5025445;28;20285;-81
2021/01/26 09:21:01;;;;;;;6.13;4.30;;;-0.10;94.00;;;;;;5023564;28;20249;-82
2021/01/26 09:23:30;;;;;;;5.83;4.30;;;-0.10;93.60;;;;;;5022901;28;20204;-85
2021/01/26 09:25:58;;;;;;;5.17;3.80;;;0.00;93.40;;;;;;5019870;28;20199;-83
2021/01/26 09:28:37;;;;;;;6.53;4.23;;;0.00;93.30;;;;;;5020538;28;20200;-81
2021/01/26 09:31:06;;;;;;;5.17;3.63;;;0.10;93.40;;;;;;5022270;28;20333;-79
2021/01/26 09:33:35;;;;;;;6.30;4.27;;;0.00;93.70;;;;;;5020896;28;20282;-80
2021/01/26 09:36:11;;;;;;;4.20;3.53;;;0.00;93.50;;;;;;5022647;28;20303;-82
2021/01/26 09:38:41;;;;;;;5.80;4.00;;;0.00;93.30;;;;;;5023662;28;20260;-80
2021/01/26 09:41:17;;;;;;;8.50;4.07;;;0.10;93.40;;;;;;5020760;28;20223;-86
2021/01/26 09:43:53;;;;;;;5.30;4.17;;;0.30;92.70;;;;;;5020888;28;20202;-80
2021/01/26 09:46:25;;;;;;;5.73;3.90;;;0.30;92.30;;;;;;5019664;28;20300;-79
2021/01/26 09:48:54;;;;;;;5.73;3.80;;;0.20;92.40;;;;;;5025226;28;20206;-81
2021/01/26 09:51:27;;;;;;;6.43;3.50;;;0.30;92.70;;;;;;5018114;28;20215;-80
2021/01/26 09:54:13;;;;;;;6.03;4.07;;;0.40;92.00;;;;;;5023894;28;20202;-80
2021/01/26 09:56:40;;;;;;;4.87;3.13;;;0.40;91.70;;;;;;5022079;28;20582;-81
2021/01/26 09:59:22;;;;;;;6.53;3.70;;;0.30;91.70;;;;;;5022335;28;20270;-79
2021/01/26 10:01:50;;;;;;;6.93;4.50;;;0.30;92.20;;;;;;5017818;28;20226;-80
2021/01/26 10:04:20;;;;;;;5.87;4.20;;;0.30;92.30;;;;;;5020234;28;20201;-80
2021/01/26 10:06:49;;;;;;;8.10;4.70;;;0.30;92.40;;;;;;5016298;28;20309;-77
2021/01/26 10:09:25;;;;;;;8.57;4.73;;;0.40;92.20;;;;;;5018491;28;20259;-80
2021/01/26 10:11:55;;;;;;;5.87;4.63;;;0.50;92.30;;;;;;5021145;28;20232;-83
2021/01/26 10:14:24;;;;;;;4.87;3.80;;;0.40;91.80;;;;;;5022730;28;20977;-78
2021/01/26 10:16:51;;;;;;;7.53;4.60;;;0.50;91.40;;;;;;5022045;28;20704;-79
2021/01/26 10:19:23;;;;;;;5.43;3.50;;;0.60;91.40;;;;;;5022681;28;20195;-78
2021/01/26 10:21:51;;;;;;;5.00;3.60;;;0.60;91.00;;;;;;5019066;28;20303;-80
2021/01/26 10:24:27;;;;;;;7.60;4.50;;;0.70;90.80;;;;;;5022317;28;20195;-79
2021/01/26 10:27:06;;;;;;;6.10;3.90;;;0.70;90.70;;;;;;5020600;28;20242;-80
2021/01/26 10:29:40;;;;;;;4.70;3.60;;;0.90;91.00;;;;;;5019502;28;20207;-79
2021/01/26 10:32:09;;;;;;;9.07;4.03;;;0.80;91.50;;;;;;5019153;28;20225;-80
2021/01/26 10:34:44;;;;;;;6.37;3.93;;;0.80;90.80;;;;;;5020550;28;20199;-82
2021/01/26 10:37:31;;;;;;;5.27;3.37;;;0.90;90.50;;;;;;5016805;28;20245;-79
2021/01/26 10:40:22;;;;;;;5.10;3.87;;;0.90;90.40;;;;;;5018854;28;20221;-79
2021/01/26 10:43:10;;;;;;;5.73;3.30;;;0.90;90.50;;;;;;5016897;28;20235;-81
2021/01/26 10:45:47;;;;;;;7.10;3.70;;;0.90;90.00;;;;;;5019573;28;20203;-81
2021/01/26 10:48:29;;;;;;;5.90;3.67;;;0.90;90.00;;;;;;5021945;28;20218;-80
2021/01/26 10:51:09;;;;;;;10.20;4.20;;;1.00;89.80;;;;;;5017863;28;20293;-79
2021/01/26 10:53:36;;;;;;;4.60;3.43;;;0.90;90.10;;;;;;5021242;28;20202;-81
2021/01/26 10:56:06;;;;;;;7.03;3.37;;;0.90;90.20;;;;;;5019687;28;20241;-78
2021/01/26 10:58:32;;;;;;;4.13;3.20;;;0.90;90.10;;;;;;5016437;28;20199;-81
2021/01/26 11:00:58;;;;;;;6.00;3.77;;;1.00;89.00;;;;;;5020013;28;20236;-80
2021/01/26 11:03:26;;;;;;;6.57;3.40;;;1.00;88.90;;;;;;5019906;28;20196;-79
2021/01/26 11:06:03;;;;;;;6.70;3.40;;;1.10;88.40;;;;;;5019819;28;20217;-79
2021/01/26 11:08:37;;;;;;;5.30;3.00;;;1.00;88.50;;;;;;5023627;28;20285;-79
2021/01/26 11:11:06;;;;;;;4.07;3.30;;;1.10;87.40;;;;;;5011095;28;20290;-80
2021/01/26 11:13:41;;;;;;;5.33;3.70;;;1.10;88.70;;;;;;5020200;28;20210;-82
2021/01/26 11:16:20;;;;;;;5.23;3.53;;;1.10;88.90;;;;;;5018356;28;20242;-84
2021/01/26 11:18:55;;;;;;;4.57;3.60;;;1.00;88.70;;;;;;5016741;28;20194;-79
2021/01/26 11:21:23;;;;;;;5.83;4.00;;;1.00;89.10;;;;;;5018900;28;20302;-85
2021/01/26 11:23:55;;;;;;;6.33;4.03;;;1.10;89.80;;;;;;5024039;28;20665;-82
2021/01/26 11:26:38;;;;;;;5.53;2.73;;;1.20;88.50;;;;;;5033145;28;20277;-81
2021/01/26 11:29:04;;;;;;;4.03;2.90;;;1.20;87.80;;;;;;5034808;28;20348;-84
2021/01/26 11:31:31;;;;;;;5.03;2.87;;;1.30;88.20;;;;;;5030054;28;20306;-80
2021/01/26 11:34:11;;;;;;;4.13;3.13;;;1.30;86.70;;;;;;5020422;28;20210;-80
2021/01/26 11:36:44;;;;;;;5.50;3.10;;;1.20;90.00;;;;;;5020408;28;20214;-80
2021/01/26 11:39:12;;;;;;;4.03;2.93;;;1.10;88.10;;;;;;5020775;28;20782;-81
2021/01/26 11:41:42;;;;;;;4.33;3.00;;;1.10;88.60;;;;;;5018361;28;20233;-90
2021/01/26 11:44:13;;;;;;;3.67;2.63;;;1.10;89.00;;;;;;5020250;28;20198;-79
2021/01/26 11:46:44;;;;;;;3.67;2.77;;;1.00;88.50;;;;;;5019104;28;20226;-87
2021/01/26 11:49:18;;;;;;;3.57;2.70;;;1.00;87.50;;;;;;5019771;28;20201;-80
2021/01/26 11:51:44;;;;;;;6.10;3.00;;;0.90;88.10;;;;;;5018821;28;20226;-78
2021/01/26 11:54:11;;;;;;;5.73;3.10;;;0.80;89.40;;;;;;5017859;28;20715;-80
2021/01/26 11:56:39;;;;;;;6.93;3.00;;;0.80;89.40;;;;;;5016845;28;20306;-81
2021/01/26 11:59:06;;;;;;;4.83;2.90;;;0.80;89.70;;;;;;5018015;28;20302;-83
2021/01/26 12:01:33;;;;;;;3.57;2.80;;;0.80;89.90;;;;;;5019864;28;20219;-78
2021/01/26 12:03:59;;;;;;;5.50;2.83;;;0.80;87.90;;;;;;5019592;28;20783;-78
2021/01/26 12:06:25;;;;;;;5.73;2.50;;;0.80;88.70;;;;;;5016233;28;20321;-78
2021/01/26 12:09:02;;;;;;;5.63;2.87;;;0.80;90.20;;;;;;5019441;28;20298;-81
2021/01/26 12:11:30;;;;;;;4.90;2.87;;;0.70;90.10;;;;;;5021899;28;20222;-80
2021/01/26 12:13:57;;;;;;;4.07;2.63;;;0.70;89.50;;;;;;5026548;28;21014;-81
2021/01/26 12:16:24;;;;;;;6.10;3.00;;;0.80;90.00;;;;;;5022186;28;20694;-78
2021/01/26 12:18:51;;;;;;;4.43;2.93;;;0.70;90.10;;;;;;5015949;28;21062;-81
2021/01/26 12:21:17;;;;;;;6.63;3.00;;;0.80;89.30;;;;;;5016862;28;20744;-90
2021/01/26 12:23:48;;;;;;;4.17;2.70;;;0.80;87.80;;;;;;5022093;28;20714;-78
2021/01/26 12:26:14;;;;;;;7.20;2.77;;;0.90;88.40;;;;;;5019191;28;21354;-78
2021/01/26 12:28:56;;;;;;;4.30;2.63;;;0.90;88.60;;;;;;5018597;28;20195;-79
2021/01/26 12:31:22;;;;;;;4.70;2.80;;;1.00;87.50;;;;;;5016154;28;20236;-85
2021/01/26 12:33:56;;;;;;;5.17;2.60;;;1.10;86.50;;;;;;5020081;28;20225;-79
2021/01/26 12:36:24;;;;;;;3.87;2.63;;;1.10;86.60;;;;;;5025176;28;20693;-82
2021/01/26 12:38:51;;;;;;;4.13;2.60;;;1.10;86.50;;;;;;5020993;28;20207;-80
2021/01/26 12:41:17;;;;;;;3.83;2.67;;;1.00;86.40;;;;;;5019924;28;20234;-82
2021/01/26 12:43:56;;;;;;;3.20;2.50;;;1.00;86.40;;;;;;5022778;28;20226;-78
2021/01/26 12:46:30;;;;;;;4.40;2.70;;;1.10;86.50;;;;;;5021342;28;20305;-80
2021/01/26 12:48:57;;;;;;;4.47;3.00;;;1.10;87.00;;;;;;5018259;28;20272;-81
2021/01/26 12:51:25;;;;;;;4.63;2.40;;;1.10;86.50;;;;;;5020836;28;20222;-80
2021/01/26 12:53:58;;;;;;;3.43;2.57;;;1.20;86.60;;;;;;5027178;28;20329;-77
2021/01/26 12:56:26;;;;;;;3.83;2.50;;;1.40;85.00;;;;;;5023997;28;20380;-80
2021/01/26 12:59:01;;;;;;;4.10;3.10;;;1.30;85.50;;;;;;5022932;28;20281;-78
2021/01/26 13:01:27;;;;;;;2.90;2.60;;;1.30;86.70;;;;;;5022139;28;20288;-78
2021/01/26 13:04:05;;;;;;;3.33;2.33;;;1.30;86.60;;;;;;5024072;28;20293;-85
2021/01/26 13:06:31;;;;;;;3.80;2.50;;;1.40;84.40;;;;;;5017225;28;20233;-81
2021/01/26 13:08:58;;;;;;;2.97;2.40;;;1.40;84.10;;;;;;5022887;28;20617;-78
2021/01/26 13:11:24;;;;;;;3.80;2.40;;;1.40;83.30;;;;;;5023793;28;20237;-82
2021/01/26 13:13:55;;;;;;;4.00;2.60;;;1.40;84.30;;;;;;5021103;28;20210;-79
2021/01/26 13:16:21;;;;;;;4.67;2.40;;;1.40;84.10;;;;;;5021459;28;20233;-79
2021/01/26 13:18:48;;;;;;;2.80;2.50;;;1.40;83.60;;;;;;5019895;28;20202;-77
2021/01/26 13:21:15;;;;;;;3.17;2.30;;;1.30;84.80;;;;;;5019139;28;20314;-79
2021/01/26 13:23:41;;;;;;;5.03;2.83;;;1.30;84.00;;;;;;5019080;28;20540;-79
2021/01/26 13:26:09;;;;;;;3.70;2.90;;;1.20;86.60;;;;;;5020125;28;20254;-82
2021/01/26 13:28:35;;;;;;;3.40;2.43;;;1.20;85.00;;;;;;5020043;28;20206;-78
2021/01/26 13:31:03;;;;;;;2.87;2.13;;;1.10;86.50;;;;;;5020104;28;20199;-82
2021/01/26 13:33:29;;;;;;;3.87;2.63;;;1.00;86.40;;;;;;5023590;28;20205;-83